Destinations Namsos Høknesøra Airport

Namsos Høknesøra Airport (ENNM / OSY)

Flights to Namsos Høknesøra Airport

Flight number From ETE Dispatch
SPY-3111 ENVA Trondheim Airport Værnes 00:40
SPY-3112 ENRM Rørvik Airport Ryum 00:20

Flights from Namsos Høknesøra Airport

Flight number To ETE Dispatch
SPY-3111 ENRM Rørvik Airport Ryum 00:20
SPY-3112 ENVA Trondheim Airport Værnes 00:40
About

Namsos Høknesøra Airport facts

Namsos Høknesøra Airport is located in Namsos at an elevation of 2.1 meters or 7 feet.

Currently, Speedy Airlines serves 4 flights to and from Namsos Høknesøra Airport.

Detailed airport info

Route map

Weather

Current weather

METAR

METAR

Metar data retrieved Sunday, 21 July 2024 at 20:25 UTC

ENNM 211950Z 10011KT CAVOK 24/14 Q1006
Wind Temperature
11 kt 24c